Time;durP1;ratioP1;P1;durP2;ratioP2;P2;SDS_P1;SDS_P2;PMS_P1;PMS_P2;Temp;Humidity;BMP_temperature;BMP_pressure;BME280_temperature;BME280_humidity;BME280_pressure;Samples;Min_cycle;Max_cycle;Signal;HPM_P1;HPM_P2
2021/10/16 00:00:41;;;;;;;46.70;29.95;;;;;;;;;;5025852;28;20136;-60
2021/10/16 00:03:08;;;;;;;46.42;30.20;;;;;;;;;;5041763;28;20111;-46
2021/10/16 00:05:34;;;;;;;41.88;26.42;;;;;;;;;;5052879;28;20389;-64
2021/10/16 00:08:00;;;;;;;51.85;31.48;;;;;;;;;;5052662;28;20428;-59
2021/10/16 00:10:26;;;;;;;39.25;25.42;;;;;;;;;;5052932;28;20078;-63
2021/10/16 00:12:53;;;;;;;35.35;24.55;;;;;;;;;;5052975;28;20096;-59
2021/10/16 00:15:19;;;;;;;39.38;24.58;;;;;;;;;;5052858;28;20107;-46
2021/10/16 00:17:45;;;;;;;39.22;23.98;;;;;;;;;;5052783;28;20484;-64
2021/10/16 00:20:11;;;;;;;56.78;34.72;;;;;;;;;;5052783;28;20031;-52
2021/10/16 00:22:37;;;;;;;55.95;37.85;;;;;;;;;;5053292;28;20017;-61
2021/10/16 00:25:04;;;;;;;73.45;47.97;;;;;;;;;;5052661;28;20037;-63
2021/10/16 00:27:30;;;;;;;62.95;41.95;;;;;;;;;;5054930;28;20033;-62
2021/10/16 00:29:56;;;;;;;55.17;37.15;;;;;;;;;;5056584;28;20112;-50
2021/10/16 00:32:22;;;;;;;48.22;34.55;;;;;;;;;;5056509;28;20029;-60
2021/10/16 00:34:51;;;;;;;47.25;30.67;;;;;;;;;;5056573;28;20485;-44
2021/10/16 00:37:17;;;;;;;48.47;30.98;;;;;;;;;;5056433;28;20035;-65
2021/10/16 00:39:47;;;;;;;40.47;27.13;;;;;;;;;;5056458;28;20027;-62
2021/10/16 00:42:13;;;;;;;37.22;25.77;;;;;;;;;;5056526;28;20059;-49
2021/10/16 00:44:40;;;;;;;32.63;22.20;;;;;;;;;;5056569;28;20029;-52
2021/10/16 00:47:08;;;;;;;29.63;21.83;;;;;;;;;;5056421;28;20052;-44
2021/10/16 00:49:34;;;;;;;38.78;25.63;;;;;;;;;;5055028;28;20044;-41
2021/10/16 00:52:01;;;;;;;37.13;22.77;;;;;;;;;;5055674;28;20092;-44
2021/10/16 00:54:27;;;;;;;36.85;24.83;;;;;;;;;;5055730;28;20119;-44
2021/10/16 00:56:54;;;;;;;36.25;22.55;;;;;;;;;;5055872;28;20017;-46
2021/10/16 00:59:20;;;;;;;42.92;26.15;;;;;;;;;;5055611;28;20013;-44
2021/10/16 01:01:49;;;;;;;38.35;26.35;;;;;;;;;;5055619;28;20021;-44
2021/10/16 01:04:15;;;;;;;33.47;21.90;;;;;;;;;;5055420;28;20473;-49
2021/10/16 01:06:44;;;;;;;34.10;22.77;;;;;;;;;;5055382;28;20380;-44
2021/10/16 01:09:11;;;;;;;37.60;24.67;;;;;;;;;;5055408;28;20047;-42
2021/10/16 01:11:39;;;;;;;39.47;27.40;;;;;;;;;;5055441;28;20465;-61
2021/10/16 01:14:06;;;;;;;39.38;26.80;;;;;;;;;;5052867;28;20108;-45
2021/10/16 01:16:32;;;;;;;42.55;27.67;;;;;;;;;;5055340;28;20083;-44
2021/10/16 01:19:01;;;;;;;36.58;25.52;;;;;;;;;;5055830;28;20369;-44
2021/10/16 01:21:29;;;;;;;37.88;27.13;;;;;;;;;;5053000;28;20021;-44
2021/10/16 01:23:55;;;;;;;38.03;25.30;;;;;;;;;;5055134;28;20538;-44
2021/10/16 01:26:21;;;;;;;38.80;25.00;;;;;;;;;;5055103;28;20096;-64
2021/10/16 01:28:48;;;;;;;36.15;24.77;;;;;;;;;;5055167;28;20033;-44
2021/10/16 01:31:14;;;;;;;32.45;23.08;;;;;;;;;;5055147;28;20025;-46
2021/10/16 01:33:40;;;;;;;37.17;25.15;;;;;;;;;;5055045;28;20528;-44
2021/10/16 01:36:07;;;;;;;33.28;23.00;;;;;;;;;;5054873;28;20059;-63
2021/10/16 01:38:33;;;;;;;32.67;22.80;;;;;;;;;;5054138;28;20032;-44
2021/10/16 01:41:00;;;;;;;34.28;25.05;;;;;;;;;;5054776;28;20035;-61
2021/10/16 01:43:27;;;;;;;33.97;22.95;;;;;;;;;;5054955;28;20098;-44
2021/10/16 01:45:53;;;;;;;32.05;23.95;;;;;;;;;;5054794;28;20024;-61
2021/10/16 01:48:23;;;;;;;28.08;21.17;;;;;;;;;;5054603;28;20029;-44
2021/10/16 01:50:52;;;;;;;35.88;24.60;;;;;;;;;;5054598;28;20029;-44
2021/10/16 01:53:18;;;;;;;29.45;20.50;;;;;;;;;;5054594;28;20013;-47
2021/10/16 01:55:45;;;;;;;25.90;20.00;;;;;;;;;;5051981;28;20028;-50
2021/10/16 01:58:17;;;;;;;33.65;22.30;;;;;;;;;;5054701;28;20021;-44
2021/10/16 02:00:46;;;;;;;29.25;21.50;;;;;;;;;;5054563;28;20067;-44
2021/10/16 02:03:12;;;;;;;31.42;22.30;;;;;;;;;;5054492;28;20101;-44
2021/10/16 02:05:46;;;;;;;29.48;20.17;;;;;;;;;;5054228;28;20041;-44
2021/10/16 02:08:13;;;;;;;30.83;21.52;;;;;;;;;;5049966;28;20469;-45
2021/10/16 02:10:39;;;;;;;32.53;21.20;;;;;;;;;;5054414;28;20052;-44
2021/10/16 02:13:06;;;;;;;33.58;23.27;;;;;;;;;;5051717;28;20051;-44
2021/10/16 02:15:32;;;;;;;28.63;19.77;;;;;;;;;;5054381;28;20115;-43
2021/10/16 02:18:01;;;;;;;28.48;19.27;;;;;;;;;;5054202;28;20054;-44
2021/10/16 02:20:27;;;;;;;32.67;20.08;;;;;;;;;;5054182;28;20020;-61
2021/10/16 02:22:53;;;;;;;32.17;21.90;;;;;;;;;;5054172;28;20027;-58
2021/10/16 02:25:19;;;;;;;32.35;21.92;;;;;;;;;;5053847;28;20041;-43
2021/10/16 02:27:45;;;;;;;38.28;28.25;;;;;;;;;;5051487;28;20024;-44
2021/10/16 02:30:11;;;;;;;35.38;26.85;;;;;;;;;;5053958;28;20494;-44
2021/10/16 02:32:38;;;;;;;34.03;25.52;;;;;;;;;;5053876;28;20025;-44
2021/10/16 02:35:04;;;;;;;32.22;23.50;;;;;;;;;;5053662;28;20067;-43
2021/10/16 02:37:30;;;;;;;29.80;21.67;;;;;;;;;;5053860;28;20419;-44
2021/10/16 02:39:56;;;;;;;35.47;22.58;;;;;;;;;;5053788;28;20518;-61
2021/10/16 02:42:23;;;;;;;27.60;20.15;;;;;;;;;;5053721;28;20025;-53
2021/10/16 02:44:49;;;;;;;31.40;21.83;;;;;;;;;;5053626;28;20017;-44
2021/10/16 02:47:16;;;;;;;30.55;19.45;;;;;;;;;;5053467;28;20435;-64
2021/10/16 02:49:42;;;;;;;25.35;19.02;;;;;;;;;;5053318;28;20032;-45
2021/10/16 02:52:08;;;;;;;24.48;18.05;;;;;;;;;;5053542;28;20540;-48
2021/10/16 02:54:37;;;;;;;27.35;19.33;;;;;;;;;;5053533;28;20029;-49
2021/10/16 02:57:03;;;;;;;27.10;19.00;;;;;;;;;;5053867;28;20057;-61
2021/10/16 02:59:29;;;;;;;25.98;18.20;;;;;;;;;;5053337;28;20031;-64
2021/10/16 03:01:55;;;;;;;31.45;21.67;;;;;;;;;;5053220;28;20013;-45
2021/10/16 03:04:21;;;;;;;27.02;19.02;;;;;;;;;;5053035;28;20047;-44
2021/10/16 03:06:48;;;;;;;28.65;19.98;;;;;;;;;;5051983;28;20071;-47
2021/10/16 03:09:17;;;;;;;27.70;19.40;;;;;;;;;;5053032;28;20044;-44
2021/10/16 03:11:43;;;;;;;32.95;20.48;;;;;;;;;;5053242;28;20428;-44
2021/10/16 03:14:09;;;;;;;34.58;22.80;;;;;;;;;;5053151;28;20036;-44
2021/10/16 03:16:35;;;;;;;33.17;21.85;;;;;;;;;;5053101;28;20032;-62
2021/10/16 03:19:04;;;;;;;33.20;22.65;;;;;;;;;;5052998;28;20358;-43
2021/10/16 03:21:30;;;;;;;32.10;21.00;;;;;;;;;;5053127;28;20101;-47
2021/10/16 03:23:58;;;;;;;34.30;20.85;;;;;;;;;;5052965;28;20033;-43
2021/10/16 03:26:25;;;;;;;28.50;19.65;;;;;;;;;;5052997;28;20024;-44
2021/10/16 03:28:51;;;;;;;28.60;20.35;;;;;;;;;;5053239;28;20527;-48
2021/10/16 03:31:17;;;;;;;25.75;18.75;;;;;;;;;;5053057;28;20013;-51
2021/10/16 03:33:43;;;;;;;26.20;20.02;;;;;;;;;;5052890;28;20021;-63
2021/10/16 03:36:09;;;;;;;25.42;18.92;;;;;;;;;;5052877;28;20025;-56
2021/10/16 03:38:35;;;;;;;26.63;19.20;;;;;;;;;;5055714;28;20025;-63
2021/10/16 03:41:01;;;;;;;30.52;19.83;;;;;;;;;;5055936;28;20021;-64
2021/10/16 03:43:27;;;;;;;27.55;19.05;;;;;;;;;;5055123;28;20032;-62
2021/10/16 03:45:53;;;;;;;29.70;20.00;;;;;;;;;;5053047;28;20063;-64
2021/10/16 03:48:19;;;;;;;30.25;21.45;;;;;;;;;;5052828;28;20549;-58
2021/10/16 03:50:46;;;;;;;26.90;19.17;;;;;;;;;;5050049;28;20032;-47
2021/10/16 03:53:12;;;;;;;27.85;19.70;;;;;;;;;;5052940;28;20381;-44
2021/10/16 03:55:38;;;;;;;30.05;21.80;;;;;;;;;;5052682;28;20032;-44
2021/10/16 03:58:04;;;;;;;29.27;20.60;;;;;;;;;;5052651;28;20021;-55
2021/10/16 04:00:30;;;;;;;28.33;20.55;;;;;;;;;;5052681;28;20021;-44
2021/10/16 04:03:03;;;;;;;30.67;21.70;;;;;;;;;;5055758;28;20024;-44
2021/10/16 04:05:29;;;;;;;28.50;20.08;;;;;;;;;;5054318;28;20064;-43
2021/10/16 04:07:55;;;;;;;27.98;20.60;;;;;;;;;;5056736;28;20460;-43
2021/10/16 04:10:21;;;;;;;31.85;20.90;;;;;;;;;;5056601;28;20047;-58
2021/10/16 04:12:47;;;;;;;29.17;20.45;;;;;;;;;;5056724;28;20017;-43
2021/10/16 04:15:13;;;;;;;30.83;19.90;;;;;;;;;;5056697;28;20032;-45
2021/10/16 04:17:39;;;;;;;32.40;21.77;;;;;;;;;;5056469;28;20025;-43
2021/10/16 04:20:06;;;;;;;26.52;19.27;;;;;;;;;;5056304;28;20025;-44
2021/10/16 04:22:34;;;;;;;28.42;20.60;;;;;;;;;;5056485;28;20020;-44
2021/10/16 04:25:00;;;;;;;30.75;21.20;;;;;;;;;;5056212;28;20037;-46
2021/10/16 04:27:26;;;;;;;29.27;20.60;;;;;;;;;;5053546;28;20017;-64
2021/10/16 04:29:53;;;;;;;29.40;20.20;;;;;;;;;;5056233;28;20025;-48
2021/10/16 04:32:19;;;;;;;27.95;18.60;;;;;;;;;;5056158;28;20435;-50
2021/10/16 04:34:45;;;;;;;30.50;20.15;;;;;;;;;;5055949;28;20170;-62
2021/10/16 04:37:11;;;;;;;28.45;20.13;;;;;;;;;;5056228;28;20468;-64
2021/10/16 04:39:37;;;;;;;27.65;19.73;;;;;;;;;;5056149;28;20078;-52
2021/10/16 04:42:06;;;;;;;24.85;18.65;;;;;;;;;;5056059;28;20025;-62
2021/10/16 04:44:32;;;;;;;28.50;19.58;;;;;;;;;;5056059;28;20053;-57
2021/10/16 04:46:58;;;;;;;28.05;20.65;;;;;;;;;;5055920;28;20096;-62
2021/10/16 04:49:24;;;;;;;27.95;19.27;;;;;;;;;;5055570;28;20033;-47
2021/10/16 04:51:50;;;;;;;31.73;20.60;;;;;;;;;;5055802;28;20045;-61
2021/10/16 04:54:16;;;;;;;29.65;19.70;;;;;;;;;;5055889;28;20028;-44
2021/10/16 04:56:45;;;;;;;27.75;19.52;;;;;;;;;;5055795;28;20439;-51
2021/10/16 04:59:11;;;;;;;30.95;21.60;;;;;;;;;;5055765;28;20020;-61
2021/10/16 05:01:37;;;;;;;28.80;19.67;;;;;;;;;;5055755;28;20485;-59
2021/10/16 05:04:03;;;;;;;29.80;20.25;;;;;;;;;;5055448;28;20017;-44
2021/10/16 05:06:32;;;;;;;26.17;19.67;;;;;;;;;;5055423;28;20086;-59
2021/10/16 05:08:59;;;;;;;28.45;19.83;;;;;;;;;;5055483;28;20032;-62
2021/10/16 05:11:25;;;;;;;31.88;21.35;;;;;;;;;;5054141;28;20045;-44
2021/10/16 05:13:51;;;;;;;38.13;21.75;;;;;;;;;;5054192;28;20028;-46
2021/10/16 05:16:17;;;;;;;30.85;20.08;;;;;;;;;;5055447;28;20478;-44
2021/10/16 05:18:43;;;;;;;32.95;22.27;;;;;;;;;;5055226;28;20017;-46
2021/10/16 05:21:09;;;;;;;29.15;21.45;;;;;;;;;;5055408;28;20028;-62
2021/10/16 05:23:36;;;;;;;35.67;22.92;;;;;;;;;;5055142;28;20434;-61
2021/10/16 05:26:02;;;;;;;37.15;22.65;;;;;;;;;;5055357;28;20040;-49
2021/10/16 05:28:28;;;;;;;37.05;23.27;;;;;;;;;;5055116;28;20056;-45
2021/10/16 05:30:57;;;;;;;34.55;23.02;;;;;;;;;;5055194;28;20464;-45
2021/10/16 05:33:23;;;;;;;33.65;22.50;;;;;;;;;;5055020;28;20020;-60
2021/10/16 05:35:49;;;;;;;39.60;25.08;;;;;;;;;;5054869;28;20068;-45
2021/10/16 05:38:15;;;;;;;33.95;23.65;;;;;;;;;;5054904;28;20024;-53
2021/10/16 05:40:41;;;;;;;37.45;25.40;;;;;;;;;;5055015;28;20059;-57
2021/10/16 05:43:08;;;;;;;42.35;26.25;;;;;;;;;;5052461;28;20029;-61
2021/10/16 05:45:34;;;;;;;42.67;25.65;;;;;;;;;;5054869;28;20025;-52
2021/10/16 05:48:00;;;;;;;40.17;26.33;;;;;;;;;;5054672;28;20100;-45
2021/10/16 05:50:27;;;;;;;42.70;26.65;;;;;;;;;;5051879;28;20040;-51
2021/10/16 05:52:53;;;;;;;42.05;27.38;;;;;;;;;;5054779;28;20024;-44
2021/10/16 05:55:19;;;;;;;47.08;27.80;;;;;;;;;;5054703;28;20040;-53
2021/10/16 05:57:45;;;;;;;47.38;28.90;;;;;;;;;;5054548;28;20013;-44
2021/10/16 06:00:11;;;;;;;45.13;27.98;;;;;;;;;;5054405;28;20032;-43
2021/10/16 06:02:39;;;;;;;46.50;27.52;;;;;;;;;;5054328;28;20028;-44
2021/10/16 06:05:05;;;;;;;41.88;24.98;;;;;;;;;;5054196;28;20032;-44
2021/10/16 06:07:31;;;;;;;38.10;24.80;;;;;;;;;;5054339;28;20021;-44
2021/10/16 06:09:57;;;;;;;40.67;25.10;;;;;;;;;;5054176;28;20044;-43
2021/10/16 06:12:24;;;;;;;39.83;25.17;;;;;;;;;;5054160;28;20074;-44
2021/10/16 06:14:50;;;;;;;36.92;25.73;;;;;;;;;;5054114;28;20028;-44
2021/10/16 06:17:16;;;;;;;35.70;24.25;;;;;;;;;;5054062;28;20021;-54
2021/10/16 06:19:44;;;;;;;35.45;24.35;;;;;;;;;;5054035;28;20063;-59
2021/10/16 06:22:11;;;;;;;36.20;24.40;;;;;;;;;;5054008;28;20021;-45
2021/10/16 06:24:37;;;;;;;36.25;23.02;;;;;;;;;;5053568;28;20401;-45
2021/10/16 06:27:03;;;;;;;32.28;22.67;;;;;;;;;;5053934;28;20021;-63
2021/10/16 06:29:29;;;;;;;32.05;21.73;;;;;;;;;;5053950;28;20036;-53
2021/10/16 06:31:56;;;;;;;33.78;23.35;;;;;;;;;;5053941;28;20048;-48
2021/10/16 06:34:22;;;;;;;35.03;22.27;;;;;;;;;;5053588;28;20021;-57
2021/10/16 06:36:48;;;;;;;36.58;24.20;;;;;;;;;;5051152;28;20024;-62
2021/10/16 06:39:14;;;;;;;35.17;24.27;;;;;;;;;;5053750;28;20021;-54
2021/10/16 06:41:40;;;;;;;39.08;26.08;;;;;;;;;;5053700;28;20017;-58
2021/10/16 06:44:09;;;;;;;45.13;30.00;;;;;;;;;;5053546;28;20017;-53
2021/10/16 06:46:35;;;;;;;41.78;28.52;;;;;;;;;;5053603;28;20024;-50
2021/10/16 06:49:01;;;;;;;53.78;33.97;;;;;;;;;;5053274;28;20025;-49
2021/10/16 06:51:27;;;;;;;48.53;25.00;;;;;;;;;;5050827;28;20032;-45
2021/10/16 06:53:53;;;;;;;44.17;29.70;;;;;;;;;;5053731;28;20013;-56
2021/10/16 06:56:19;;;;;;;37.65;25.63;;;;;;;;;;5053479;28;20021;-44
2021/10/16 06:58:45;;;;;;;40.15;27.63;;;;;;;;;;5053551;28;20021;-47
2021/10/16 07:01:12;;;;;;;34.45;23.98;;;;;;;;;;5053497;28;20013;-45
2021/10/16 07:03:38;;;;;;;36.13;25.50;;;;;;;;;;5053276;28;20070;-45
2021/10/16 07:06:07;;;;;;;35.70;24.00;;;;;;;;;;5053016;28;20049;-44
2021/10/16 07:08:33;;;;;;;31.75;21.48;;;;;;;;;;5053116;28;20025;-48
2021/10/16 07:10:59;;;;;;;38.72;27.55;;;;;;;;;;5053213;28;20028;-46
2021/10/16 07:13:26;;;;;;;37.92;26.00;;;;;;;;;;5053254;28;20021;-48
2021/10/16 07:15:52;;;;;;;37.38;23.23;;;;;;;;;;5052902;28;20032;-46
2021/10/16 07:18:18;;;;;;;59.47;31.83;;;;;;;;;;5052956;28;20021;-49
2021/10/16 07:20:44;;;;;;;36.13;22.40;;;;;;;;;;5052837;28;20020;-45
2021/10/16 07:23:16;;;;;;;30.60;20.92;;;;;;;;;;5052967;28;20017;-45
2021/10/16 07:25:42;;;;;;;;;;;;;;;;;;5053108;28;20033;-43
2021/10/16 07:28:08;;;;;;;29.50;20.30;;;;;;;;;;5052772;28;19931;-55
2021/10/16 07:30:34;;;;;;;24.20;17.70;;;;;;;;;;5053194;28;20029;-45
2021/10/16 07:33:00;;;;;;;50.33;32.53;;;;;;;;;;5053307;28;20028;-44
2021/10/16 07:35:26;;;;;;;33.55;22.10;;;;;;;;;;5052912;28;20035;-44
2021/10/16 07:37:52;;;;;;;37.65;25.80;;;;;;;;;;5052706;28;20032;-50
2021/10/16 07:40:18;;;;;;;38.92;23.40;;;;;;;;;;5053188;28;20033;-45
2021/10/16 07:42:46;;;;;;;48.30;31.13;;;;;;;;;;5053258;28;20021;-44
2021/10/16 07:45:12;;;;;;;46.85;28.42;;;;;;;;;;5053248;28;20025;-55
2021/10/16 07:47:39;;;;;;;53.47;31.42;;;;;;;;;;5053127;28;20025;-44
2021/10/16 07:50:08;;;;;;;37.55;25.20;;;;;;;;;;5053037;28;20083;-55
2021/10/16 07:52:34;;;;;;;55.75;35.65;;;;;;;;;;5053275;28;20025;-43
2021/10/16 07:55:02;;;;;;;37.63;24.83;;;;;;;;;;5053185;28;20043;-44
2021/10/16 07:57:28;;;;;;;57.20;35.30;;;;;;;;;;5052996;28;20028;-43
2021/10/16 07:59:55;;;;;;;54.92;34.90;;;;;;;;;;5053081;28;20541;-44
2021/10/16 08:02:21;;;;;;;41.78;27.05;;;;;;;;;;5052916;28;20049;-49
2021/10/16 08:04:47;;;;;;;42.55;25.20;;;;;;;;;;5053297;28;20484;-44
2021/10/16 08:07:13;;;;;;;37.00;23.48;;;;;;;;;;5053219;28;20101;-43
2021/10/16 08:09:39;;;;;;;65.63;39.97;;;;;;;;;;5052796;28;20473;-43
2021/10/16 08:12:05;;;;;;;31.67;20.02;;;;;;;;;;5052982;28;20100;-49
2021/10/16 08:14:31;;;;;;;27.08;18.52;;;;;;;;;;5052923;28;20489;-45
2021/10/16 08:17:00;;;;;;;35.72;22.80;;;;;;;;;;5052446;28;20021;-45
2021/10/16 08:19:26;;;;;;;37.45;24.90;;;;;;;;;;5052265;28;20029;-51
2021/10/16 08:21:52;;;;;;;33.15;21.95;;;;;;;;;;5052553;28;20021;-55
2021/10/16 08:24:19;;;;;;;30.85;19.80;;;;;;;;;;5052740;28;20056;-48
2021/10/16 08:26:45;;;;;;;37.60;22.90;;;;;;;;;;5052801;28;20017;-54
2021/10/16 08:29:11;;;;;;;38.92;25.23;;;;;;;;;;5052397;28;20025;-55
2021/10/16 08:31:37;;;;;;;48.97;28.35;;;;;;;;;;5051336;28;20452;-54
2021/10/16 08:34:03;;;;;;;37.42;23.00;;;;;;;;;;5052175;28;20025;-52
2021/10/16 08:36:29;;;;;;;62.85;41.15;;;;;;;;;;5051972;28;20025;-55
2021/10/16 08:38:55;;;;;;;65.60;36.35;;;;;;;;;;5052091;28;20017;-53
2021/10/16 08:41:21;;;;;;;56.13;35.13;;;;;;;;;;5052174;28;20018;-54
2021/10/16 08:43:47;;;;;;;57.70;35.85;;;;;;;;;;5052132;28;20032;-48
2021/10/16 08:46:14;;;;;;;36.90;22.80;;;;;;;;;;5049518;28;20025;-46
2021/10/16 08:48:41;;;;;;;40.35;23.70;;;;;;;;;;5054470;28;20380;-50
2021/10/16 08:51:07;;;;;;;28.35;16.50;;;;;;;;;;5055815;28;20496;-47
2021/10/16 08:53:34;;;;;;;31.50;20.92;;;;;;;;;;5053063;28;20021;-48
2021/10/16 08:56:06;;;;;;;38.00;22.08;;;;;;;;;;5055860;28;20028;-52
2021/10/16 08:58:36;;;;;;;51.25;23.83;;;;;;;;;;5055647;28;20021;-53
2021/10/16 09:01:03;;;;;;;21.90;14.73;;;;;;;;;;5056167;28;20041;-47
2021/10/16 09:03:29;;;;;;;36.67;18.83;;;;;;;;;;5056053;28;20037;-57
2021/10/16 09:06:01;;;;;;;32.88;18.77;;;;;;;;;;5056119;28;20033;-56
2021/10/16 09:08:57;;;;;;;25.83;16.40;;;;;;;;;;5056249;28;20115;-58
2021/10/16 09:11:33;;;;;;;30.17;17.65;;;;;;;;;;5033835;28;20172;-53
2021/10/16 09:13:59;;;;;;;44.28;27.30;;;;;;;;;;5033964;28;20104;-49
2021/10/16 09:16:38;;;;;;;35.85;20.52;;;;;;;;;;5033957;28;20552;-48
2021/10/16 09:19:10;;;;;;;40.63;26.50;;;;;;;;;;5033782;28;20080;-55
2021/10/16 09:21:38;;;;;;;57.38;33.08;;;;;;;;;;5033668;28;20397;-52
2021/10/16 09:24:11;;;;;;;47.80;30.90;;;;;;;;;;5033599;28;20056;-45
2021/10/16 09:26:39;;;;;;;81.05;46.25;;;;;;;;;;5033633;28;20021;-54
2021/10/16 09:29:06;;;;;;;81.28;48.08;;;;;;;;;;5033478;28;20041;-56
2021/10/16 09:31:35;;;;;;;45.88;29.13;;;;;;;;;;5033492;28;20037;-47
2021/10/16 09:34:01;;;;;;;92.53;58.80;;;;;;;;;;5033469;28;20390;-52
2021/10/16 09:36:30;;;;;;;89.15;56.92;;;;;;;;;;5033240;28;20038;-48
2021/10/16 09:38:56;;;;;;;141.25;92.57;;;;;;;;;;5033432;28;20033;-47
2021/10/16 09:41:29;;;;;;;148.65;94.55;;;;;;;;;;5033235;28;20061;-47
2021/10/16 09:43:58;;;;;;;85.68;51.88;;;;;;;;;;5033337;28;20022;-46
2021/10/16 09:46:25;;;;;;;52.92;34.28;;;;;;;;;;5033173;28;20472;-49
2021/10/16 09:48:52;;;;;;;94.22;57.13;;;;;;;;;;5053780;28;20039;-46
2021/10/16 09:51:19;;;;;;;101.43;62.45;;;;;;;;;;5055069;28;20380;-50
2021/10/16 09:53:48;;;;;;;135.85;75.50;;;;;;;;;;5054546;28;20090;-44
2021/10/16 09:56:15;;;;;;;84.20;42.35;;;;;;;;;;5054546;28;20021;-54
2021/10/16 09:58:42;;;;;;;51.50;29.25;;;;;;;;;;5054486;28;20044;-51
2021/10/16 10:01:09;;;;;;;82.95;43.08;;;;;;;;;;5054005;28;20512;-46
2021/10/16 10:03:36;;;;;;;65.10;31.48;;;;;;;;;;5054386;28;20048;-45
2021/10/16 10:06:03;;;;;;;78.45;44.00;;;;;;;;;;5054400;28;20108;-46
2021/10/16 10:08:32;;;;;;;71.20;37.83;;;;;;;;;;5054380;28;20102;-56
2021/10/16 10:10:58;;;;;;;103.05;52.70;;;;;;;;;;5054255;28;20035;-46
2021/10/16 10:13:26;;;;;;;114.20;54.33;;;;;;;;;;5037491;28;20020;-54
2021/10/16 10:15:54;;;;;;;68.03;35.95;;;;;;;;;;5025540;28;20459;-45
2021/10/16 10:21:06;;;;;;;74.35;34.97;;;;;;;;;;5025927;28;20178;-53
2021/10/16 10:23:32;;;;;;;51.13;24.88;;;;;;;;;;5023561;28;20036;-46
2021/10/16 10:26:17;;;;;;;33.67;17.33;;;;;;;;;;5023998;28;20026;-53
2021/10/16 10:28:57;;;;;;;58.78;31.38;;;;;;;;;;5025426;28;20491;-46
2021/10/16 10:31:51;;;;;;;87.50;53.03;;;;;;;;;;5025144;28;20145;-46
2021/10/16 10:34:28;;;;;;;120.60;69.38;;;;;;;;;;5024462;28;20039;-45
2021/10/16 10:37:06;;;;;;;62.38;33.72;;;;;;;;;;5024095;28;20022;-51
2021/10/16 10:39:35;;;;;;;82.90;46.97;;;;;;;;;;5024324;28;20028;-48
2021/10/16 10:42:01;;;;;;;48.40;31.48;;;;;;;;;;5023564;28;20889;-45
2021/10/16 10:44:48;;;;;;;71.13;35.17;;;;;;;;;;5024079;28;20513;-46
2021/10/16 10:47:24;;;;;;;59.75;33.97;;;;;;;;;;5023468;28;20508;-47
2021/10/16 10:49:57;;;;;;;62.38;37.28;;;;;;;;;;5024901;28;20068;-46
2021/10/16 10:52:26;;;;;;;123.60;76.65;;;;;;;;;;5023400;28;20025;-50
2021/10/16 10:55:08;;;;;;;47.00;30.23;;;;;;;;;;5024514;28;20029;-48
2021/10/16 10:57:48;;;;;;;46.17;30.00;;;;;;;;;;5023359;28;20052;-48
2021/10/16 11:00:15;;;;;;;46.50;24.83;;;;;;;;;;5024470;28;20030;-50
2021/10/16 11:02:42;;;;;;;30.05;20.60;;;;;;;;;;5023446;28;20041;-51
2021/10/16 11:05:34;;;;;;;102.32;64.43;;;;;;;;;;5023475;28;20033;-51
2021/10/16 11:08:12;;;;;;;64.35;41.95;;;;;;;;;;5024744;28;20025;-51
2021/10/16 11:10:39;;;;;;;80.95;57.33;;;;;;;;;;5023017;28;20086;-49
2021/10/16 11:13:11;;;;;;;47.67;33.78;;;;;;;;;;5022998;28;20379;-50
2021/10/16 11:15:38;;;;;;;38.53;27.02;;;;;;;;;;5026070;28;20508;-50
2021/10/16 11:18:10;;;;;;;61.80;41.38;;;;;;;;;;5023110;28;20576;-50
2021/10/16 11:20:37;;;;;;;90.95;59.80;;;;;;;;;;5022861;28;20029;-50
2021/10/16 11:23:03;;;;;;;79.53;48.30;;;;;;;;;;5022928;28;20159;-50
2021/10/16 11:25:31;;;;;;;79.22;47.05;;;;;;;;;;5022871;28;20506;-50
2021/10/16 11:27:59;;;;;;;34.15;23.85;;;;;;;;;;5024080;28;20025;-50
2021/10/16 11:30:26;;;;;;;99.75;65.85;;;;;;;;;;5023889;28;20123;-50
2021/10/16 11:32:52;;;;;;;55.78;33.70;;;;;;;;;;5022966;28;20021;-50
2021/10/16 11:35:20;;;;;;;38.42;24.20;;;;;;;;;;5022656;28;20120;-51
2021/10/16 11:37:48;;;;;;;36.03;24.08;;;;;;;;;;5023567;28;21186;-50
2021/10/16 11:40:18;;;;;;;25.92;17.30;;;;;;;;;;5023678;28;20025;-50
2021/10/16 11:43:07;;;;;;;31.05;14.35;;;;;;;;;;5022558;28;20032;-50
2021/10/16 11:45:36;;;;;;;15.50;10.40;;;;;;;;;;5020366;28;20042;-51
2021/10/16 11:48:04;;;;;;;24.27;14.80;;;;;;;;;;5022584;28;20036;-50
2021/10/16 11:50:34;;;;;;;14.50;10.98;;;;;;;;;;5022535;28;20037;-50
2021/10/16 11:53:10;;;;;;;16.90;11.00;;;;;;;;;;5023614;28;20476;-50
2021/10/16 11:55:39;;;;;;;19.27;10.75;;;;;;;;;;5022457;28;20045;-50
2021/10/16 11:58:06;;;;;;;15.48;9.90;;;;;;;;;;5023317;28;20481;-50
2021/10/16 12:00:33;;;;;;;14.02;9.00;;;;;;;;;;5023822;28;20331;-50
2021/10/16 12:02:59;;;;;;;16.33;9.70;;;;;;;;;;5022523;28;20036;-50
2021/10/16 12:05:27;;;;;;;49.25;24.88;;;;;;;;;;5022354;28;20413;-50
2021/10/16 12:07:54;;;;;;;28.02;19.70;;;;;;;;;;5022627;28;20068;-50
2021/10/16 12:10:25;;;;;;;33.75;21.10;;;;;;;;;;5022614;28;20852;-50
2021/10/16 12:13:02;;;;;;;316.38;162.50;;;;;;;;;;5022576;28;20025;-50
2021/10/16 12:15:40;;;;;;;104.72;58.20;;;;;;;;;;5022497;28;20037;-50
2021/10/16 12:18:06;;;;;;;19.38;12.05;;;;;;;;;;5022033;28;20547;-50
2021/10/16 12:20:42;;;;;;;16.67;8.98;;;;;;;;;;5022837;28;20420;-50
2021/10/16 12:23:09;;;;;;;69.30;46.78;;;;;;;;;;5024369;28;20556;-51
2021/10/16 12:26:04;;;;;;;20.90;15.82;;;;;;;;;;5026344;28;20220;-51
2021/10/16 12:28:41;;;;;;;28.88;20.90;;;;;;;;;;5003705;28;20042;-50
2021/10/16 12:31:08;;;;;;;23.88;15.68;;;;;;;;;;5003093;28;20030;-50
2021/10/16 12:33:53;;;;;;;37.38;22.70;;;;;;;;;;5003721;28;20100;-50
2021/10/16 12:36:23;;;;;;;28.50;15.10;;;;;;;;;;5002959;28;20042;-51
2021/10/16 12:38:49;;;;;;;20.30;10.55;;;;;;;;;;5003082;28;20029;-51
2021/10/16 12:41:25;;;;;;;17.27;11.27;;;;;;;;;;5003392;28;20529;-50
2021/10/16 12:43:52;;;;;;;20.73;13.40;;;;;;;;;;5004498;28;20120;-50
2021/10/16 12:46:27;;;;;;;25.58;17.05;;;;;;;;;;5002661;28;20076;-50
2021/10/16 12:48:53;;;;;;;16.42;12.32;;;;;;;;;;5003185;28;20061;-50
2021/10/16 12:51:38;;;;;;;27.33;17.67;;;;;;;;;;5002787;28;20613;-50
2021/10/16 12:54:04;;;;;;;38.25;24.40;;;;;;;;;;5004093;28;20044;-50
2021/10/16 12:56:31;;;;;;;21.70;13.82;;;;;;;;;;5012017;28;20028;-50
2021/10/16 12:58:58;;;;;;;21.27;14.13;;;;;;;;;;5034227;28;20489;-50
2021/10/16 13:01:26;;;;;;;18.85;11.88;;;;;;;;;;5034201;28;20029;-50
2021/10/16 13:03:52;;;;;;;24.83;15.93;;;;;;;;;;5034380;28;20145;-51
2021/10/16 13:06:18;;;;;;;21.83;14.48;;;;;;;;;;5036444;28;20040;-52
2021/10/16 13:08:44;;;;;;;16.10;12.00;;;;;;;;;;5036184;28;20021;-52
2021/10/16 13:11:10;;;;;;;14.77;10.40;;;;;;;;;;5036197;28;20038;-49
2021/10/16 13:13:36;;;;;;;18.55;10.18;;;;;;;;;;5036639;28;20030;-51
2021/10/16 13:16:02;;;;;;;14.13;10.48;;;;;;;;;;5036317;28;20037;-49
2021/10/16 13:18:28;;;;;;;14.30;10.25;;;;;;;;;;5036080;28;20036;-48
2021/10/16 13:20:54;;;;;;;16.60;10.38;;;;;;;;;;5035785;28;20107;-49
2021/10/16 13:23:20;;;;;;;14.30;9.95;;;;;;;;;;5036090;28;20386;-48
2021/10/16 13:25:46;;;;;;;19.27;10.73;;;;;;;;;;5035975;28;20131;-49
2021/10/16 13:28:13;;;;;;;12.75;9.80;;;;;;;;;;5035950;28;20029;-49
2021/10/16 13:30:39;;;;;;;12.43;9.90;;;;;;;;;;5036089;28;20037;-48
2021/10/16 13:33:05;;;;;;;13.55;9.27;;;;;;;;;;5035704;28;20469;-49
2021/10/16 13:35:31;;;;;;;12.30;8.80;;;;;;;;;;5034490;28;20043;-49
2021/10/16 13:37:57;;;;;;;15.55;10.20;;;;;;;;;;5035790;28;20028;-49
2021/10/16 13:40:23;;;;;;;15.73;9.95;;;;;;;;;;5035623;28;20021;-49
2021/10/16 13:42:50;;;;;;;14.10;10.10;;;;;;;;;;5035586;28;20045;-49
2021/10/16 13:45:17;;;;;;;13.68;8.95;;;;;;;;;;5035487;28;20022;-50
2021/10/16 13:47:44;;;;;;;14.57;9.07;;;;;;;;;;5035750;28;20018;-51
2021/10/16 13:50:10;;;;;;;14.40;9.75;;;;;;;;;;5035482;28;20508;-51
2021/10/16 13:52:37;;;;;;;13.02;8.48;;;;;;;;;;5035781;28;20031;-50
2021/10/16 13:55:07;;;;;;;15.35;9.77;;;;;;;;;;5035331;28;20022;-49
2021/10/16 13:57:33;;;;;;;14.50;9.75;;;;;;;;;;5035441;28;20028;-50
2021/10/16 14:00:03;;;;;;;19.63;9.40;;;;;;;;;;5035152;28;20035;-49
2021/10/16 14:02:29;;;;;;;15.00;8.85;;;;;;;;;;5035285;28;20140;-50
2021/10/16 14:04:55;;;;;;;17.40;9.48;;;;;;;;;;5035059;28;20041;-52
2021/10/16 14:07:24;;;;;;;12.07;8.80;;;;;;;;;;5035229;28;20021;-50
2021/10/16 14:09:50;;;;;;;18.10;9.73;;;;;;;;;;5035015;28;20100;-50
2021/10/16 14:12:16;;;;;;;14.20;8.85;;;;;;;;;;5034936;28;20496;-50
2021/10/16 14:14:45;;;;;;;15.05;9.18;;;;;;;;;;5034888;28;20033;-50
2021/10/16 14:17:11;;;;;;;15.35;8.93;;;;;;;;;;5035007;28;20021;-51
2021/10/16 14:19:37;;;;;;;24.25;10.48;;;;;;;;;;5035031;28;20017;-49
2021/10/16 14:22:03;;;;;;;13.70;8.98;;;;;;;;;;5035067;28;20104;-50
2021/10/16 14:24:30;;;;;;;16.08;9.60;;;;;;;;;;5034643;28;20045;-50